Data for 09/28/2010

Time Sea-Level Adjusted Pressure Absolute Pressure Temperature Relative Humidity Dew Point   
(mb) (inHg) (mb) (inHg) (C) (F) (%) (C) (F)
00:05 1022 30.18 851 25.13 16.5 61.7 44 4.5 40
00:10 1022 30.18 851 25.13 16.5 61.7 45 4.7 40.4
00:15 1022 30.18 851 25.13 16.6 61.8 48 5.6 42.1
00:20 1022 30.18 851 25.13 16.7 62 43 4.3 39.7
00:25 1022 30.18 851 25.13 16.5 61.8 47 5.2 41.4
00:30 1022 30.18 851 25.13 16.1 60.9 48 5.1 41.3
00:35 1022 30.18 851 25.13 15.7 60.2 53 6.2 43.1
00:40 1022 30.18 851 25.13 15.3 59.5 50 5 41
00:45 1022 30.18 851 25.13 15.1 59.2 51 5.2 41.4
00:50 1022 30.18 851 25.13 14.9 58.8 53 5.4 41.7
00:55 1022 30.18 851 25.13 14.4 57.9 54 5.3 41.5
01:00 1022 30.18 851 25.13 14.2 57.5 55 5.2 41.3
01:05 1022 30.18 851 25.13 14.1 57.3 54 4.9 40.9
01:10 1022 30.18 851 25.13 14.3 57.8 54 5.2 41.3
01:15 1022 30.18 851 25.13 14 57.2 55 5.2 41.4
01:20 1022 30.18 851 25.13 13.8 56.8 57 5.3 41.6
01:25 1022 30.18 851 25.13 13.2 55.7 60 5.5 42
01:30 1022 30.18 851 25.13 12.9 55.1 59 5.1 41.2
01:35 1022 30.18 851 25.13 13.1 55.6 57 4.9 40.9
01:40 1022 30.18 851 25.13 13.4 56 58 5.3 41.5
01:45 1022 30.18 851 25.13 13 55.3 59 5.2 41.4
01:50 1022 30.18 851 25.13 12.9 55.3 59 5.1 41.2
01:55 1022 30.18 851 25.13 13 55.4 58 4.9 40.9
02:00 1022 30.18 851 25.13 13.4 56.1 55 4.7 40.5
02:05 1022 30.18 851 25.13 13.7 56.6 55 4.8 40.6
02:10 1022 30.18 851 25.13 13.8 56.9 54 4.8 40.6
02:15 1022 30.18 851 25.13 13.9 57 54 4.8 40.7
02:20 1022 30.18 851 25.13 13.8 56.9 54 4.8 40.6
02:25 1022 30.18 851 25.13 13.8 56.8 54 4.8 40.7
02:30 1022 30.18 851 25.13 13.6 56.6 55 4.8 40.6
02:35 1022 30.18 851 25.13 13.6 56.6 54 4.7 40.4
02:40 1022 30.18 851 25.13 13.7 56.6 54 4.6 40.3
02:45 1022 30.18 851 25.13 13.8 56.8 53 4.5 40.2
02:50 1022 30.18 851 25.13 14 57.1 52 4.2 39.6
02:55 1022 30.18 851 25.13 14.3 57.7 52 4.5 40.2
03:00 1022 30.18 851 25.13 14.1 57.5 51 4.3 39.7
03:05 1022 30.18 851 25.13 14.3 57.7 52 4.5 40.2
03:10 1022 30.18 851 25.13 14.5 58 51 4.5 40
03:15 1022 30.18 851 25.13 14.5 58.1 51 4.5 40
03:20 1022 30.18 851 25.13 14.3 57.8 51 4.5 40.1
03:25 1022 30.18 851 25.13 14.2 57.5 52 4.6 40.3
03:30 1022 30.18 851 25.13 14.1 57.3 52 4.4 39.9
03:35 1022 30.18 851 25.13 14.3 57.7 50 4.2 39.6
03:40 1022 30.18 851 25.13 14.5 58.1 50 4.2 39.5
03:45 1022 30.18 851 25.13 14.4 58 51 4.5 40
03:50 1022 30.18 851 25.13 13.8 56.9 55 5.1 41.1
03:55 1022 30.18 851 25.13 13.2 55.7 55 4.3 39.8
04:00 1022 30.18 851 25.13 13.8 56.9 52 4.2 39.6
04:05 1021 30.15 851 25.13 13.8 56.8 54 4.6 40.2
04:10 1021 30.15 851 25.13 13.1 55.6 56 4.6 40.3
04:15 1021 30.15 851 25.13 12.9 55.2 57 4.7 40.4
04:20 1021 30.15 851 25.13 12.7 54.8 56 4.2 39.6
04:25 1021 30.15 851 25.13 13 55.4 55 4.3 39.7
04:30 1021 30.15 851 25.13 13 55.3 56 4.5 40.1
04:35 1021 30.15 850 25.1 12.6 54.7 56 4 39.2
04:40 1021 30.15 850 25.1 12.7 54.8 56 4.1 39.4
04:45 1021 30.15 851 25.13 12.5 54.5 57 4.4 39.9
04:50 1021 30.15 851 25.13 12.6 54.6 56 4.2 39.5
04:55 1021 30.15 851 25.13 12.6 54.7 55 4 39.2
05:00 1021 30.15 851 25.13 12.6 54.7 57 4.3 39.8
05:05 1021 30.15 851 25.13 12.4 54.3 57 4.3 39.7
05:10 1021 30.15 851 25.13 12.5 54.5 55 3.7 38.7
05:15 1021 30.15 851 25.13 12.8 55.1 55 4.2 39.5
05:20 1021 30.15 851 25.13 12.6 54.7 55 3.9 39
05:25 1021 30.15 851 25.13 12.7 54.8 55 3.9 39
05:30 1021 30.15 851 25.13 12.9 55.3 53 3.6 38.4
05:35 1021 30.15 851 25.13 13.2 55.7 52 3.7 38.6
05:40 1021 30.15 851 25.13 13.3 55.9 52 3.6 38.5
05:45 1021 30.15 851 25.13 13.6 56.5 50 3.3 38
05:50 1021 30.15 851 25.13 13.7 56.7 50 3.6 38.5
05:55 1021 30.15 851 25.13 13.4 56.1 53 4 39.3
06:00 1021 30.15 851 25.13 12.8 55 53 3.5 38.4
06:05 1022 30.18 851 25.13 13 55.4 52 3.4 38.2
06:10 1021 30.15 851 25.13 13.1 55.6 54 4 39.2
06:15 1021 30.15 851 25.13 12.9 55.2 53 3.6 38.6
06:20 1022 30.18 851 25.13 12.6 54.7 55 3.9 39
06:25 1022 30.18 851 25.13 12.3 54.2 55 3.6 38.5
06:30 1022 30.18 851 25.13 12 53.5 58 4 39.1
06:35 1022 30.18 851 25.13 11.7 53.1 57 3.6 38.5
06:40 1022 30.18 851 25.13 11.7 53.1 59 4 39.2
06:45 1021 30.15 851 25.13 11.3 52.3 61 4.1 39.3
06:50 1021 30.15 851 25.13 11.4 52.5 56 3.1 37.6
06:55 1022 30.18 851 25.13 12.1 53.9 55 3.4 38.2
07:00 1022 30.18 851 25.13 12.3 54.1 55 3.5 38.3
07:05 1022 30.18 851 25.13 12.1 53.7 55 3.5 38.3
07:10 1022 30.18 851 25.13 12.2 54 52 2.8 37.1
07:15 1022 30.18 851 25.13 12.6 54.6 52 3.2 37.7
07:20 1022 30.18 851 25.13 12.2 54 55 3.6 38.4
07:25 1022 30.18 851 25.13 11.8 53.2 57 3.6 38.4
07:30 1022 30.18 851 25.13 12 53.5 56 3.5 38.3
07:35 1022 30.18 851 25.13 11.5 52.6 57 3.4 38
07:40 1022 30.18 851 25.13 11.8 53.2 53 2.6 36.7
07:45 1022 30.18 851 25.13 12.3 54.1 54 3.4 38.1
07:50 1022 30.18 851 25.13 11.9 53.4 54 2.9 37.1
07:55 1022 30.18 851 25.13 12.4 54.3 54 3.3 38
08:00 1022 30.18 851 25.13 12.5 54.5 51 2.7 36.9
08:05 1022 30.18 851 25.13 13.3 55.9 49 2.8 37
08:10 1022 30.18 851 25.13 13.6 56.4 51 3.7 38.7
08:15 1022 30.18 851 25.13 13.1 55.6 53 3.8 38.8
08:20 1022 30.18 851 25.13 12.8 55 53 3.6 38.5
08:25 1022 30.18 851 25.13 13.1 55.5 51 3.3 37.9
08:30 1022 30.18 851 25.13 13.6 56.4 50 3.4 38.1
08:35 1022 30.18 851 25.13 13.9 57 50 3.8 38.9
08:40 1022 30.18 851 25.13 13.8 56.9 52 4.2 39.5
08:45 1022 30.18 851 25.13 13.8 56.8 52 4 39.2
08:50 1021 30.15 851 25.13 13.9 57 52 4.3 39.7
08:55 1021 30.15 851 25.13 14.2 57.5 50 3.8 38.9
09:00 1021 30.15 851 25.13 14.7 58.4 50 4.6 40.3
09:05 1021 30.15 851 25.13 15 59.1 50 4.8 40.7
09:10 1021 30.15 851 25.13 15.4 59.8 48 4.7 40.5
09:15 1021 30.15 851 25.13 16 60.8 46 4.5 40.1
09:20 1021 30.15 851 25.13 16 60.8 45 4.1 39.4
09:25 1021 30.15 851 25.13 16.4 61.5 44 4.3 39.8
09:30 1021 30.15 851 25.13 16.7 62 45 4.7 40.5
09:35 1021 30.15 850 25.1 17 62.6 44 4.8 40.7
09:40 1021 30.15 850 25.1 17.3 63.2 43 4.7 40.5
09:45 1021 30.15 851 25.13 17.9 64.3 39 3.8 38.9
09:50 1021 30.15 850 25.1 18.3 65 39 4.1 39.4
09:55 1021 30.15 850 25.1 19 66.1 37 4.1 39.4
10:00 1021 30.15 850 25.1 19.6 67.3 33 2.9 37.3
10:05 1021 30.15 850 25.1 20.3 68.6 32 3.5 38.2
10:10 1021 30.15 850 25.1 20.4 68.8 33 3.8 38.8
10:15 1021 30.15 850 25.1 20.8 69.4 33 4.1 39.4
10:20 1021 30.15 850 25.1 20.7 69.2 34 4.4 40
10:25 1021 30.15 850 25.1 21 69.8 30 2.8 37
10:30 1021 30.15 850 25.1 20.7 69.3 31 3.2 37.7
10:35 1021 30.15 850 25.1 21 69.8 30 3.1 37.5
10:40 1021 30.15 850 25.1 21.1 70 31 3.7 38.7
10:45 1021 30.15 850 25.1 21 69.9 31 3.6 38.5
10:50 1021 30.15 850 25.1 21.7 71 31 3.9 39
10:55 1021 30.15 850 25.1 22 71.5 31 4.2 39.5
11:00 1021 30.15 850 25.1 21.9 71.5 32 4.8 40.6
11:05 1021 30.15 850 25.1 22 71.6 32 4.8 40.7
11:10 1021 30.15 850 25.1 22.5 72.5 32 5.1 41.2
11:15 1021 30.15 850 25.1 22.4 72.3 32 4.9 40.9
11:20 1021 30.15 850 25.1 22.5 72.6 31 4.6 40.2
11:25 1021 30.15 850 25.1 23 73.3 29 4.4 39.9
11:30 1021 30.15 850 25.1 22.8 73 29 4.2 39.5
11:35 1021 30.15 850 25.1 23.2 73.7 27 3.5 38.4
11:40 1021 30.15 850 25.1 23.1 73.5 29 4.5 40
11:45 1020 30.12 850 25.1 23 73.4 29 4.2 39.5
11:50 1020 30.12 850 25.1 23.2 73.8 28 4 39.2
11:55 1020 30.12 850 25.1 23.5 74.3 28 4.3 39.7
12:00 1020 30.12 849 25.07 23.9 75 27 4.2 39.6
12:05 1020 30.12 849 25.07 24.2 75.5 27 4.2 39.6
12:10 1020 30.12 849 25.07 24.6 76.2 26 4 39.2
12:15 1020 30.12 849 25.07 25 76.9 24 3.1 37.6
12:20 1020 30.12 849 25.07 24.9 76.8 24 3.3 38
12:25 1020 30.12 849 25.07 25.1 77.2 24 3.3 37.9
12:30 1020 30.12 849 25.07 26 78.7 22 3.1 37.6
12:35 1020 30.12 849 25.07 26.7 80 23 3.9 39
12:40 1020 30.12 849 25.07 26.9 80.5 21 3 37.4
12:45 1020 30.12 849 25.07 27.2 80.9 20 2.7 36.9
12:50 1019 30.09 849 25.07 26.9 80.5 21 3.2 37.8
12:55 1019 30.09 849 25.07 26.8 80.2 22 3.3 38
13:00 1019 30.09 848 25.04 26.2 79.2 23 3.9 39
13:05 1019 30.09 848 25.04 26.1 78.9 24 4.1 39.4
13:10 1019 30.09 848 25.04 26.7 80 23 4.1 39.4
13:15 1019 30.09 848 25.04 27 80.5 22 3.8 38.9
13:20 1019 30.09 848 25.04 26.4 79.6 23 3.9 39
13:25 1019 30.09 848 25.04 26.9 80.4 22 4 39.1
13:30 1019 30.09 848 25.04 26.5 79.7 23 3.9 39.1
13:35 1019 30.09 848 25.04 27.4 81.3 22 4.2 39.6
13:40 1019 30.09 848 25.04 27.5 81.6 21 3.5 38.4
13:45 1019 30.09 848 25.04 27.9 82.2 21 4.1 39.4
13:50 1018 30.06 848 25.04 28.2 82.7 20 3.1 37.5
13:55 1018 30.06 848 25.04 28.8 83.8 19 3.4 38.2
14:00 1018 30.06 847 25.01 28.7 83.7 21 4.3 39.7
14:05 1018 30.06 847 25.01 27.8 82 22 4.6 40.3
14:10 1018 30.06 847 25.01 26.9 80.3 23 4.1 39.4
14:15 1018 30.06 847 25.01 26.7 80.1 23 4 39.2
14:20 1018 30.06 847 25.01 27.5 81.5 21 3.8 38.8
14:25 1018 30.06 847 25.01 27.9 82.3 20 3.5 38.3
14:30 1018 30.06 847 25.01 28.3 82.9 20 3.4 38.2
14:35 1018 30.06 847 25.01 28 82.4 20 3.1 37.6
14:40 1018 30.06 847 25.01 27.8 82 20 3.2 37.8
14:45 1018 30.06 847 25.01 28.3 83 19 2.9 37.2
14:50 1018 30.06 847 25.01 29.2 84.5 19 3.1 37.7
14:55 1017 30.03 847 25.01 29.2 84.6 16 1.5 34.7
15:00 1017 30.03 847 25.01 29.3 84.8 17 2.4 36.2
15:05 1017 30.03 847 25.01 29.1 84.4 17 2.2 35.9
15:10 1017 30.03 847 25.01 29.1 84.4 17 2 35.6
15:15 1017 30.03 846 24.98 29.2 84.5 18 2.4 36.3
15:20 1017 30.03 846 24.98 29.4 84.9 17 2.3 36.2
15:25 1017 30.03 846 24.98 29.2 84.6 18 2.4 36.4
15:30 1017 30.03 846 24.98 29.1 84.4 14 -0.6 30.9
15:35 1017 30.03 846 24.98 29.5 85.1 14 -0.1 31.8
15:40 1017 30.03 846 24.98 29.6 85.3 13 -1 30.1
15:45 1017 30.03 846 24.98 29.8 85.6 14 -0.7 30.8
15:50 1017 30.03 846 24.98 29.8 85.6 16 1.8 35.2
15:55 1017 30.03 846 24.98 29.5 85.1 17 2.5 36.5
16:00 1017 30.03 846 24.98 29.4 84.8 17 2.5 36.5
16:05 1017 30.03 846 24.98 29.2 84.5 17 1.9 35.5
16:10 1017 30.03 846 24.98 29.3 84.7 17 2 35.6
16:15 1017 30.03 846 24.98 29.1 84.3 19 3.4 38
16:20 1017 30.03 846 24.98 28.9 84.1 17 2.1 35.8
16:25 1017 30.03 846 24.98 29.2 84.6 17 2 35.6
16:30 1017 30.03 846 24.98 29.4 85 18 2.6 36.8
16:35 1017 30.03 846 24.98 29.5 85.1 18 3.1 37.6
16:40 1017 30.03 846 24.98 29.6 85.3 17 2.5 36.5
16:45 1017 30.03 846 24.98 29.8 85.6 15 0.6 33.1
16:50 1017 30.03 846 24.98 29.7 85.4 15 0.2 32.4
16:55 1017 30.03 846 24.98 29.8 85.6 14 -0.3 31.5
17:00 1016 30 846 24.98 29.3 84.8 15 0 32.1
17:05 1016 30 846 24.98 29.1 84.4 15 -0.2 31.6
17:10 1016 30 846 24.98 29 84.1 15 -0 32
17:15 1016 30 846 24.98 28.8 83.9 15 0.3 32.5
17:20 1016 30 846 24.98 28.9 84 15 -0.2 31.7
17:25 1016 30 846 24.98 28.9 84 15 0.2 32.3
17:30 1016 30 846 24.98 28.9 83.9 15 0.2 32.4
17:35 1016 30 846 24.98 28.8 83.8 15 0.2 32.4
17:40 1016 30 846 24.98 28.7 83.6 15 -0 31.9
17:45 1016 30 846 24.98 28.7 83.7 15 0.2 32.4
17:50 1016 30 846 24.98 28.8 83.8 16 0.8 33.5
17:55 1016 30 846 24.98 28.8 83.9 16 0.6 33.1
18:00 1016 30 846 24.98 28.7 83.6 16 1 33.8
18:05 1016 30 846 24.98 28.5 83.2 17 1.7 35.1
18:10 1016 30 846 24.98 28.2 82.8 18 2 35.7
18:15 1016 30 846 24.98 27.9 82.2 18 1.9 35.4
18:20 1016 30 846 24.98 27.7 81.8 18 1.7 35.1
18:25 1016 30 846 24.98 27.5 81.5 19 2 35.6
18:30 1016 30 846 24.98 27.3 81.1 18 1 33.8
18:35 1016 30 846 24.98 27 80.6 19 1.8 35.3
18:40 1017 30.03 846 24.98 26.6 79.8 21 2.5 36.6
18:45 1017 30.03 846 24.98 26.2 79.2 22 2.8 37.1
18:50 1017 30.03 846 24.98 25.8 78.5 21 2.1 35.8
18:55 1017 30.03 846 24.98 25.6 78.1 22 2.6 36.7
19:00 1017 30.03 846 24.98 25.3 77.6 23 2.8 37.1
19:05 1017 30.03 846 24.98 25.1 77.2 23 2.5 36.5
19:10 1017 30.03 846 24.98 24.9 76.7 23 2.8 37
19:15 1017 30.03 846 24.98 24.5 76.2 23 2.3 36.2
19:20 1017 30.03 846 24.98 24.3 75.7 23 2.3 36.1
19:25 1017 30.03 846 24.98 23.6 74.4 24 2.3 36.2
19:30 1017 30.03 846 24.98 23.1 73.5 25 2.3 36.2
19:35 1017 30.03 846 24.98 22.5 72.5 26 2.2 35.9
19:40 1017 30.03 846 24.98 22 71.6 25 1.2 34.1
19:45 1017 30.03 846 24.98 22.1 71.7 26 1.8 35.3
19:50 1017 30.03 846 24.98 21.1 69.9 27 1.5 34.8
19:55 1017 30.03 847 25.01 20.7 69.3 28 1.9 35.4
20:00 1017 30.03 847 25.01 20 68 29 1.5 34.7
20:05 1018 30.06 847 25.01 20.1 68.2 27 0.8 33.4
20:10 1018 30.06 847 25.01 20.4 68.7 28 1.3 34.4
20:15 1018 30.06 847 25.01 20.1 68.2 28 1 33.8
20:20 1018 30.06 847 25.01 19.9 67.9 27 0.5 32.9
20:25 1018 30.06 847 25.01 20.2 68.3 26 0.3 32.5
20:30 1018 30.06 847 25.01 20.2 68.3 26 0.1 32.1
20:35 1018 30.06 847 25.01 20.3 68.5 25 -0.2 31.6
20:40 1018 30.06 847 25.01 20.1 68.3 25 -0.2 31.6
20:45 1018 30.06 847 25.01 19.9 67.9 24 -1.1 30
20:50 1018 30.06 847 25.01 20.2 68.3 24 -0.7 30.7
20:55 1018 30.06 847 25.01 20 67.9 25 -0.5 31.1
21:00 1018 30.06 847 25.01 19.5 67.2 25 -1 30.1
21:05 1018 30.06 847 25.01 19.5 67 25 -0.9 30.4
21:10 1018 30.06 847 25.01 19.2 66.6 25 -1.1 30
21:15 1018 30.06 847 25.01 19.3 66.8 25 -1.3 29.7
21:20 1018 30.06 848 25.04 19.5 67 25 -1 30.3
21:25 1018 30.06 848 25.04 19 66.3 26 -0.5 31.1
21:30 1018 30.06 848 25.04 18.9 66.1 26 -0.9 30.4
21:35 1018 30.06 848 25.04 18.8 65.8 26 -0.8 30.6
21:40 1018 30.06 848 25.04 18.6 65.5 26 -1.2 29.8
21:45 1018 30.06 848 25.04 18.9 66.1 24 -1.7 28.9
21:50 1018 30.06 848 25.04 19.1 66.3 24 -1.6 29
21:55 1018 30.06 848 25.04 19.1 66.4 26 -0.6 30.8
22:00 1019 30.09 848 25.04 18.8 65.9 25 -1.3 29.7
22:05 1019 30.09 848 25.04 18.7 65.7 25 -1.8 28.7
22:10 1019 30.09 848 25.04 18.7 65.6 25 -1.7 29
22:15 1019 30.09 848 25.04 18.7 65.7 25 -1.8 28.8
22:20 1019 30.09 848 25.04 18.7 65.6 25 -1.7 29
22:25 1019 30.09 848 25.04 18.2 64.8 28 -0.6 30.9
22:30 1019 30.09 848 25.04 17.6 63.8 27 -1.6 29
22:35 1019 30.09 848 25.04 17.9 64.3 26 -1.6 29.1
22:40 1019 30.09 848 25.04 17.8 64.1 26 -1.8 28.7
22:45 1019 30.09 848 25.04 17.8 64.1 26 -2 28.4
22:50 1019 30.09 848 25.04 18.1 64.6 25 -2.1 28.2
22:55 1019 30.09 848 25.04 18.2 64.7 26 -1.6 29.1
23:00 1019 30.09 848 25.04 18 64.3 26 -1.9 28.5
23:05 1019 30.09 848 25.04 17.9 64.1 26 -1.9 28.6
23:10 1019 30.09 848 25.04 17.9 64.2 26 -1.7 28.9
23:15 1019 30.09 848 25.04 17.7 63.8 27 -1.6 29.1
23:20 1019 30.09 848 25.04 17.4 63.4 28 -1.2 29.8
23:25 1019 30.09 849 25.07 16.9 62.3 28 -1.5 29.3
23:30 1019 30.09 849 25.07 16.7 62.1 29 -1.4 29.5
23:35 1019 30.09 849 25.07 16.6 61.9 29 -1.3 29.7
23:40 1020 30.12 849 25.07 16.4 61.6 30 -0.9 30.5
23:45 1020 30.12 849 25.07 16 60.8 31 -1 30.2
23:50 1019 30.09 849 25.07 15.8 60.5 29 -1.9 28.6
23:55 1019 30.09 849 25.07 16.3 61.4 31 -0.9 30.3
24:00 1020 30.12 849 25.07 16.2 61.2 29 -1.8 28.8